All
Mater Hospital Airport (Brisbane, QLD) YMAT Weather
There is no TAF data available at YMAT. Showing TAF data for YBAF (6 mi S).
YBAF Terminal Area Forecast (no data for YMAT)
| Here is the undecoded forecast: 2026/09/06 17:08 YBAF 061708Z 0617/0706 23006KT 8000 FU HZ FEW025 FM062300 13010KT 9999 HZ SCT030 FM070200 04012KT CAVOK PROB30 0617/0622 5000 FU HZ RMK T 16 13 20 25 Q 1020 1020 1021 1019 |
There is no METAR data available at YMAT. Showing METAR data for YBAF (6 mi S).
Recent YBAF METAR history (no data for YMAT)
| Date | Time (AEST) | Flight Rules | Wind Dir. | Speed | Type | Height AGL (ft) | Visibility | Temp (°C) | Temp (°F) | Dew Point (°C) | Dew Point (°F) | Rel. Humid. | Pressure | Density Altitude | Remarks |
|---|---|---|---|---|---|---|---|---|---|---|---|---|---|---|---|
| 07-Sep | 06:00AM | MVFR | 220° | 3 kt | 8000 meters |
13° | 55° | 11° | 51° | 88% | 1021 mb | -407 ft | |||
| 07-Sep | 05:00AM | VFR | Calm | 9000 meters |
14° | 57° | 10° | 50° | 77% | 1020 mb | -258 ft | ||||
| 07-Sep | 04:00AM | MVFR | 210° | 3 kt | 7000 meters |
15° | 59° | 12° | 53° | 82% | 1020 mb | -138 ft | |||
| 07-Sep | 03:00AM | MVFR | 230° | 1 kt | 8000 meters |
16° | 60° | 12° | 53° | 77% | 1020 mb | -18 ft | |||
| 07-Sep | 02:00AM | VFR | 210° | 4 kt | 10000 meters | 17° | 62° | 12° | 53° | 72% | 1020 mb | 102 ft | |||
| 07-Sep | 01:00AM | VFR | 170° | 6 kt | 10000 meters | 18° | 64° | 12° | 53° | 68% | 1020 mb | 222 ft | |||
| 07-Sep | 12:00AM | VFR | 150° | 8 kt | 10000 meters | 19° | 66° | 13° | 55° | 68% | 1020 mb | 342 ft | |||
| 06-Sep | 11:00PM | VFR | 140° | 13 kt | 10000 meters | 20° | 68° | 13° | 55° | 64% | 1019 mb | 492 ft | |||
| 06-Sep | 10:00PM | VFR | 140° | 14 kt | 10000 meters | 21° | 69° | 14° | 57° | 64% | 1019 mb | 612 ft | |||
| 06-Sep | 09:06PM | VFR | 130° | 15 kt | 10000 meters | 22° | 71° | 15° | 59° | 65% | 1018 mb | 761 ft | Wind gusting to 25 KT | ||
| 06-Sep | 08:07PM | VFR | 130° | 19 kt | 10000 meters | 22° | 71° | 17° | 62° | 73% | 1017 mb | 791 ft | |||
| 06-Sep | 07:07PM | VFR | 110° | 18 kt | 10000 meters | 24° | 75° | 17° | 62° | 65% | 1015 mb | 1,090 ft | |||
| 06-Sep | 06:00PM | VFR | 240° | 10 kt | 10000 meters | 29° | 84° | 5° | 41° | 22% | 1013 mb | 1,749 ft | |||
| 06-Sep | 05:00PM | VFR | 230° | 13 kt | 10000 meters | 32° | 89° | 5° | 41° | 18% | 1012 mb | 2,139 ft | |||
| 06-Sep | 04:00PM | VFR | 230° | 14 kt | 10000 meters | 34° | 93° | 7° | 44° | 19% | 1012 mb | 2,379 ft | |||
| 06-Sep | 03:00PM | VFR | 220° | 11 kt | 10000 meters | 33° | 91° | 7° | 44° | 20% | 1011 mb | 2,288 ft | |||
| 06-Sep | 02:00PM | VFR | 270° | 13 kt | 10000 meters | 35° | 95° | 8° | 46° | 19% | 1012 mb | 2,499 ft | |||
| 06-Sep | 01:00PM | VFR | 290° | 10 kt | 10000 meters | 34° | 93° | 11° | 51° | 25% | 1012 mb | 2,379 ft | |||
| 06-Sep | 12:00PM | VFR | 310° | 11 kt | 10000 meters | 32° | 89° | 12° | 53° | 29% | 1014 mb | 2,080 ft | |||
| 06-Sep | 11:00AM | VFR | 310° | 10 kt | 10000 meters | 31° | 87° | 13° | 55° | 33% | 1015 mb | 1,930 ft | |||
| 06-Sep | 10:00AM | VFR | 330° | 5 kt | 10000 meters | 28° | 82° | 15° | 59° | 45% | 1015 mb | 1,570 ft | |||
| 06-Sep | 09:00AM | VFR | 320° | 4 kt | 10000 meters | 24° | 75° | 17° | 62° | 65% | 1016 mb | 1,061 ft | |||
| 06-Sep | 08:00AM | VFR | 210° | 3 kt | Broken |
12,000 |
10000 meters | 20° | 68° | 17° | 62° | 83% | 1016 mb | 581 ft | |
| 06-Sep | 07:00AM | VFR | 300° | 4 kt | 10000 meters | 18° | 64° | 17° | 62° | 94% | 1015 mb | 370 ft |
Login
| Your browser is unsupported. upgrade your browser |
